Weather History for Sedona, AZ

Change the Weather History Date:

Monday, November 26, 2012

  Actual Average Record
Temperature  
Mean Temperature 58 °F -  
Max Temperature 69 °F 57 °F 69 °F (2012)
Min Temperature 48 °F 31 °F 29 °F (2010)
Degree Days  
Heating Degree Days 6    
Growing Degree Days 8 (Base 50)    
Moisture  
Dew Point 25 °F    
Average Humidity 31    
Maximum Humidity 46    
Minimum Humidity 17    
Precipitation  
Precipitation 0.00 in - - ()
Sea Level Pressure  
Sea Level Pressure 30.14 in    
Wind  
Wind Speed 8 mph (NE)    
Max Wind Speed 13 mph    
Max Gust Speed 21 mph    
Visibility 10 miles    
Events      
Averages and records for this station are not official NWS values.
T = Trace of Precipitation, MM = Missing Value Source: NWS Daily Summary

Daily Weather History Graph

Daily Weather History Graph

Search for Another Location

Airport:

Trip Planner

Search our weather history database for the weather conditions in past years. The results will help you decide how hot, cold, wet, or windy it might be!

Date:

Astronomy

Nov. 26, 2012 Rise Set
Actual Time 7:12 AM MST 5:16 PM MST
Civil Twilight 6:44 AM MST 5:44 PM MST
Nautical Twilight 6:13 AM MST 6:15 PM MST
Astronomical Twilight 5:43 AM MST 6:45 PM MST
Moon 4:09 PM MST (11/26) 5:28 AM MST (11/26)
Length of Visible Light 10h 59m
Length of Day
10h 04m
Waxing Gibbous, 97% of the Moon is Illuminated
Nov 26
Waxing Gibbous
Nov 28
Full
Dec 6
Last Quarter
Dec 13
New
Dec 19
First Quarter

Hourly Weather History & Observations

Time (MST) Temp. Dew Point Humidity Pressure Visibility Wind Dir Wind Speed Gust Speed Precip Events Conditions
12:15 AM 51.8 °F 28.4 °F 41% 30.06 in 10.0 mi NE 8.1 mph - N/A   Clear
12:35 AM 51.8 °F 28.4 °F 41% 30.06 in 10.0 mi NNE 9.2 mph - N/A   Clear
12:55 AM 51.8 °F 28.4 °F 41% 30.06 in 10.0 mi NE 10.4 mph - N/A   Clear
1:15 AM 51.8 °F 28.4 °F 41% 30.06 in 10.0 mi NNE 9.2 mph - N/A   Clear
1:35 AM 51.8 °F 28.4 °F 41% 30.05 in 10.0 mi NE 9.2 mph - N/A   Clear
1:55 AM 51.8 °F 28.4 °F 41% 30.06 in 10.0 mi NE 10.4 mph - N/A   Clear
2:15 AM 51.8 °F 28.4 °F 41% 30.06 in 10.0 mi NNE 9.2 mph - N/A   Clear
2:35 AM 51.8 °F 28.4 °F 41% 30.07 in 10.0 mi NE 10.4 mph - N/A   Clear
2:55 AM 51.8 °F 28.4 °F 41% 30.06 in 10.0 mi NE 9.2 mph - N/A   Clear
3:15 AM 50.0 °F 28.4 °F 43% 30.07 in 10.0 mi NE 12.7 mph - N/A   Clear
3:35 AM 48.2 °F 28.4 °F 46% 30.07 in 10.0 mi NE 10.4 mph - N/A   Clear
3:55 AM 50.0 °F 28.4 °F 43% 30.06 in 10.0 mi NE 10.4 mph - N/A   Clear
4:15 AM 50.0 °F 28.4 °F 43% 30.07 in 10.0 mi NNE 10.4 mph - N/A   Clear
4:35 AM 48.2 °F 26.6 °F 43% 30.07 in 10.0 mi NE 10.4 mph - N/A   Clear
4:55 AM 50.0 °F 26.6 °F 40% 30.07 in 10.0 mi NE 11.5 mph - N/A   Clear
5:15 AM 50.0 °F 26.6 °F 40% 30.08 in 10.0 mi NNE 10.4 mph - N/A   Clear
5:35 AM 50.0 °F 26.6 °F 40% 30.09 in 10.0 mi NE 10.4 mph - N/A   Clear
5:55 AM 50.0 °F 26.6 °F 40% 30.09 in 10.0 mi NE 10.4 mph - N/A   Clear
6:15 AM 48.2 °F 26.6 °F 43% 30.10 in 10.0 mi NNE 11.5 mph - N/A   Clear
6:35 AM 50.0 °F 26.6 °F 40% 30.11 in 10.0 mi NE 11.5 mph - N/A   Clear
6:55 AM 50.0 °F 26.6 °F 40% 30.11 in 10.0 mi NE 9.2 mph - N/A   Clear
7:15 AM 50.0 °F 26.6 °F 40% 30.13 in 10.0 mi NE 10.4 mph - N/A   Clear
7:35 AM 50.0 °F 24.8 °F 37% 30.13 in 10.0 mi NE 9.2 mph - N/A   Clear
7:55 AM 51.8 °F 26.6 °F 38% 30.14 in 10.0 mi ENE 4.6 mph - N/A   Clear
8:15 AM 53.6 °F 26.6 °F 35% 30.15 in 10.0 mi East 3.5 mph - N/A   Clear
8:35 AM 53.6 °F 24.8 °F 33% 30.16 in 10.0 mi East 5.8 mph - N/A   Clear
8:55 AM 51.8 °F 26.6 °F 38% 30.17 in 10.0 mi East 4.6 mph - N/A   Clear
9:15 AM 53.6 °F 26.6 °F 35% 30.17 in 10.0 mi East 8.1 mph - N/A   Clear
9:35 AM 55.4 °F 26.6 °F 33% 30.17 in 10.0 mi ESE 5.8 mph - N/A   Clear
9:55 AM 57.2 °F 28.4 °F 33% 30.18 in 10.0 mi SE 4.6 mph - N/A   Clear
10:15 AM 57.2 °F 28.4 °F 33% 30.18 in 10.0 mi South 3.5 mph - N/A   Clear
10:35 AM 59.0 °F 28.4 °F 31% 30.18 in 10.0 mi SSE 3.5 mph - N/A   Clear
10:55 AM 62.6 °F 28.4 °F 27% 30.18 in 10.0 mi South 4.6 mph - N/A   Clear
11:15 AM 64.4 °F 28.4 °F 26% 30.18 in 10.0 mi South 4.6 mph - N/A   Clear
11:35 AM 64.4 °F 28.4 °F 26% 30.17 in 10.0 mi South 3.5 mph - N/A   Clear
11:55 AM 64.4 °F 28.4 °F 26% 30.17 in 10.0 mi Calm Calm - N/A   Clear
12:15 PM 64.4 °F 26.6 °F 24% 30.17 in 10.0 mi Calm Calm - N/A   Clear
12:35 PM 64.4 °F 28.4 °F 26% 30.16 in 10.0 mi WSW 3.5 mph - N/A   Clear
12:55 PM 64.4 °F 26.6 °F 24% 30.16 in 10.0 mi Calm Calm - N/A   Clear
1:15 PM 68.0 °F 26.6 °F 21% 30.14 in 10.0 mi West 6.9 mph - N/A   Clear
1:35 PM 68.0 °F 24.8 °F 20% 30.14 in 10.0 mi West 6.9 mph - N/A   Clear
1:55 PM 68.0 °F 23.0 °F 18% 30.14 in 10.0 mi WNW 8.1 mph - N/A   Clear
2:15 PM 68.0 °F 23.0 °F 18% 30.14 in 10.0 mi WSW 4.6 mph - N/A   Clear
2:35 PM 68.0 °F 21.2 °F 17% 30.13 in 10.0 mi WSW 4.6 mph - N/A   Clear
2:55 PM 68.0 °F 21.2 °F 17% 30.13 in 10.0 mi SW 4.6 mph - N/A   Clear
3:15 PM 69.8 °F 23.0 °F 17% 30.13 in 10.0 mi SSW 4.6 mph - N/A   Clear
3:35 PM 69.8 °F 23.0 °F 17% 30.13 in 10.0 mi WNW 3.5 mph - N/A   Clear
3:55 PM 68.0 °F 23.0 °F 18% 30.14 in 10.0 mi WSW 4.6 mph - N/A   Clear
4:15 PM 68.0 °F 21.2 °F 17% 30.14 in 10.0 mi Calm Calm - N/A   Clear
4:35 PM 68.0 °F 23.0 °F 18% 30.13 in 10.0 mi SSW 3.5 mph - N/A   Clear
4:55 PM 64.4 °F 23.0 °F 21% 30.13 in 10.0 mi Calm Calm - N/A   Clear
5:15 PM 64.4 °F 23.0 °F 21% 30.14 in 10.0 mi Calm Calm - N/A   Clear
5:35 PM 62.6 °F 23.0 °F 22% 30.14 in 10.0 mi Calm Calm - N/A   Clear
5:55 PM 62.6 °F 23.0 °F 22% 30.15 in 10.0 mi Calm Calm - N/A   Clear
6:15 PM 62.6 °F 23.0 °F 22% 30.16 in 10.0 mi Calm Calm - N/A   Clear
6:35 PM 60.8 °F 21.2 °F 22% 30.17 in 10.0 mi NE 5.8 mph - N/A   Clear
6:55 PM 59.0 °F 21.2 °F 23% 30.17 in 10.0 mi NE 12.7 mph - N/A   Clear
7:15 PM 59.0 °F 23.0 °F 25% 30.18 in 10.0 mi NE 11.5 mph - N/A   Clear
7:35 PM 59.0 °F 23.0 °F 25% 30.19 in 10.0 mi ENE 11.5 mph - N/A   Clear
7:55 PM 59.0 °F 23.0 °F 25% 30.19 in 10.0 mi ENE 10.4 mph - N/A   Clear
8:15 PM 59.0 °F 23.0 °F 25% 30.20 in 10.0 mi NE 11.5 mph - N/A   Clear
8:35 PM 57.2 °F 23.0 °F 27% 30.21 in 10.0 mi NE 11.5 mph - N/A   Clear
8:55 PM 57.2 °F 23.0 °F 27% 30.22 in 10.0 mi NE 12.7 mph - N/A   Clear
9:15 PM 57.2 °F 23.0 °F 27% 30.22 in 10.0 mi NE 12.7 mph - N/A   Clear
9:35 PM 55.4 °F 23.0 °F 29% 30.22 in 10.0 mi ENE 12.7 mph - N/A   Clear
9:55 PM 55.4 °F 23.0 °F 29% 30.23 in 10.0 mi ENE 12.7 mph - N/A   Clear
10:15 PM 55.4 °F 23.0 °F 29% 30.23 in 10.0 mi NE 12.7 mph 20.7 mph N/A   Clear
10:35 PM 53.6 °F 23.0 °F 30% 30.23 in 10.0 mi NE 11.5 mph - N/A   Clear
10:55 PM 53.6 °F 23.0 °F 30% 30.24 in 10.0 mi NE 10.4 mph 16.1 mph N/A   Clear
11:15 PM 53.6 °F 23.0 °F 30% 30.24 in 10.0 mi NE 11.5 mph - N/A   Clear
11:35 PM 53.6 °F 23.0 °F 30% 30.25 in 10.0 mi NE 11.5 mph - N/A   Clear
11:55 PM 53.6 °F 23.0 °F 30% 30.25 in 10.0 mi NE 11.5 mph - N/A   Clear